All Spectrum Aviation - Van Nuys Airport - KVNY

HOME

Condor Squadron KVNY Webcam

Visit our Electronics Store

Condor Squadron Webcam - Van Nuys Airport - KVNY
Picture taken: Sat, 16 Feb 2019 23:46:21 -0800
YouTube Channel!    Latest Timelapse Movie    Full Size Image    Regular Size Image    

2019/02/17 06:51 KVNY 170651Z AUTO 29004KT 10SM CLR 10/04 A3008 RMK AO2 SLP185 T01000039

HOME

Condor Squadron KVNY Webcam

Visit our Electronics Store